Current Weather

Laguardia

New York, New York (KLGA)

Report from: Monday, June 17, 2024 5:51 AM EDT
Current time: Monday, June 17, 2024 6:54 AM EDT

Nearby weather – Weather history – Daily summaries
Weather forecast

Temperature19.4°C (66.9°F)
Dew point16.7°C (62.1°F)
Winds 5 kts (2.6 m/s, 5.8 mph) South (190°)
Visibility10 mi. (16.1 km)
Clouds Few clouds 1,500 ft. (457 m)
Few clouds 6,000 ft. (1,829 m)
Scattered clouds 26,000 ft. (7,925 m)
Altimeter30.20 in.Hg (1023 mB)
Relative humidity84 %
Density altitude461 ft. (141 m)
Sea-level pressure102.3 kPa (1023 mB, 30.20 in.Hg)
Remarks System requires maintenance
Automated weather observing station with precipitation discriminator
Flight conditions Visual Meteorological Conditions
Raw dataKLGA 170951Z 19005KT 10SM FEW015 FEW060 SCT260 19/17 A3020 RMK AO2 SLP226 T01940167 $
An error has occurred. This application may no longer respond until reloaded. Reload 🗙